Time;durP1;ratioP1;P1;durP2;ratioP2;P2;SDS_P1;SDS_P2;PMS_P1;PMS_P2;Temp;Humidity;BMP_temperature;BMP_pressure;BME280_temperature;BME280_humidity;BME280_pressure;Samples;Min_cycle;Max_cycle;Signal;HPM_P1;HPM_P2
2024/01/21 00:00:20;;;;;;;;;7.25;6.25;;;;;8.41;64.80;101687.41;146619;566;46020;-73
2024/01/21 00:03:25;;;;;;;;;8.25;7.75;;;;;8.49;65.50;101702.72;146613;579;47017;-73
2024/01/21 00:06:29;;;;;;;;;5.50;5.50;;;;;8.52;64.18;101705.53;146623;601;47010;-76
2024/01/21 00:09:27;;;;;;;;;25.50;20.25;;;;;8.47;64.76;101701.72;146615;640;47015;-75
2024/01/21 00:12:23;;;;;;;;;11.50;11.00;;;;;8.47;66.42;101693.97;146619;631;47010;-72
2024/01/21 00:15:18;;;;;;;;;11.50;11.50;;;;;8.55;67.86;101702.28;146616;643;46034;-71
2024/01/21 00:18:16;;;;;;;;;11.00;8.25;;;;;8.60;66.96;101710.38;146621;676;46020;-71
2024/01/21 00:21:30;;;;;;;;;17.25;16.00;;;;;8.63;67.05;101701.19;146617;569;46016;-72
2024/01/21 00:24:27;;;;;;;;;12.25;12.25;;;;;8.65;66.30;101715.09;146622;666;46020;-72
2024/01/21 00:27:22;;;;;;;;;5.00;3.25;;;;;8.62;65.28;101714.87;146619;582;47012;-71
2024/01/21 00:30:27;;;;;;;;;47.75;34.25;;;;;8.57;66.38;101724.00;146622;588;46010;-71
2024/01/21 00:33:25;;;;;;;;;2.25;2.00;;;;;8.51;65.01;101718.34;146618;588;46917;-72
2024/01/21 00:36:29;;;;;;;;;3.00;3.00;;;;;8.41;65.17;101724.53;146620;586;46020;-72
2024/01/21 00:39:25;;;;;;;;;5.75;4.50;;;;;8.40;65.71;101725.28;146618;572;47012;-72
2024/01/21 00:42:30;;;;;;;;;3.00;2.50;;;;;8.40;65.42;101730.44;146621;601;46020;-74
2024/01/21 00:45:31;;;;;;;;;2.50;1.75;;;;;8.37;64.96;101719.84;146619;576;46012;-74
2024/01/21 00:48:26;;;;;;;;;3.00;3.00;;;;;8.32;65.57;101719.50;146619;571;47010;-74
2024/01/21 00:51:21;;;;;;;;;3.00;3.00;;;;;8.29;64.67;101716.69;146621;620;46012;-74
2024/01/21 00:54:29;;;;;;;;;;;;;;;;;;;;;
2024/01/21 00:57:24;;;;;;;;;5.00;2.75;;;;;8.26;65.97;101736.25;146614;589;47016;-74
2024/01/21 01:00:25;;;;;;;;;3.00;3.00;;;;;8.24;67.08;101735.22;146622;626;46010;-74
2024/01/21 01:03:31;;;;;;;;;2.50;2.50;;;;;8.20;67.46;101730.59;146617;584;46017;-72
2024/01/21 01:06:25;;;;;;;;;8.00;8.00;;;;;8.14;68.86;101723.28;146621;669;46020;-71
2024/01/21 01:09:31;;;;;;;;;9.50;9.50;;;;;6.49;68.48;101458.44;146617;566;46013;-73
2024/01/21 01:12:28;;;;;;;;;6.50;5.75;;;;;8.05;68.92;101736.38;146620;597;46014;-73
2024/01/21 01:15:33;;;;;;;;;6.25;6.25;;;;;8.10;68.74;101744.50;146617;669;46917;-73
2024/01/21 01:18:25;;;;;;;;;17.00;14.25;;;;;8.12;69.02;101742.00;146621;692;46010;-70
2024/01/21 01:21:20;;;;;;;;;12.25;11.50;;;;;8.18;69.17;101743.38;146618;569;46016;-69
2024/01/21 01:24:26;;;;;;;;;9.00;9.00;;;;;8.24;69.10;101748.13;146620;602;46021;-69
2024/01/21 01:27:30;;;;;;;;;3.00;2.00;;;;;8.22;68.89;101748.00;146615;586;47014;-69
2024/01/21 01:30:26;;;;;;;;;1.50;0.25;;;;;8.17;68.67;101754.50;146622;578;46020;-70
2024/01/21 01:33:17;;;;;;;;;1.25;0.50;;;;;8.15;69.34;101748.31;146620;566;46031;-70
2024/01/21 01:36:14;;;;;;;;;1.00;0.00;;;;;8.15;68.88;101750.91;146623;603;46010;-69
2024/01/21 01:39:14;;;;;;;;;6.00;4.75;;;;;8.15;68.43;101758.66;146618;609;46915;-72
2024/01/21 01:42:10;;;;;;;;;1.00;1.00;;;;;8.15;68.75;101750.91;146622;566;46020;-71
2024/01/21 01:45:14;;;;;;;;;2.00;0.00;;;;;8.12;69.16;101753.25;146619;632;46915;-72
2024/01/21 01:48:16;;;;;;;;;3.00;3.00;;;;;8.13;69.34;101759.31;146622;566;46010;-72
2024/01/21 01:51:22;;;;;;;;;1.25;0.25;;;;;8.10;68.93;101747.97;146615;594;46016;-71
2024/01/21 01:54:34;;;;;;;;;1.75;1.75;;;;;8.04;69.55;101756.94;146620;614;46021;-72
2024/01/21 01:57:36;;;;;;;;;3.00;3.00;;;;;7.97;68.70;101762.37;146618;736;46014;-72
2024/01/21 02:00:41;;;;;;;;;3.75;1.00;;;;;7.94;69.21;101764.72;146621;658;46020;-69
2024/01/21 02:03:33;;;;;;;;;0.50;0.50;;;;;7.90;69.71;101762.69;146621;637;45914;-70
2024/01/21 02:06:37;;;;;;;;;1.00;1.00;;;;;7.91;69.73;101777.41;146623;590;46020;-71
2024/01/21 02:09:44;;;;;;;;;0.25;0.25;;;;;7.88;70.27;101772.87;146619;746;46915;-73
2024/01/21 02:12:51;;;;;;;;;;;;;;;;;;;;;
2024/01/21 02:15:58;;;;;;;;;0.00;0.00;;;;;7.77;70.96;101764.31;146617;633;46015;-70
2024/01/21 02:18:54;;;;;;;;;1.00;0.00;;;;;7.79;71.66;101774.78;146622;570;46010;-71
2024/01/21 02:21:58;;;;;;;;;1.75;1.25;;;;;6.48;71.09;101546.81;146618;589;46012;-71
2024/01/21 02:24:55;;;;;;;;;1.00;1.00;;;;;7.80;70.44;101782.63;146618;603;48010;-71
2024/01/21 02:27:59;;;;;;;;;0.50;0.50;;;;;7.80;70.51;101790.38;146618;580;46012;-69
2024/01/21 02:31:00;;;;;;;;;2.00;1.00;;;;;7.76;70.35;101788.34;146621;581;46020;-70
2024/01/21 02:33:54;;;;;;;;;0.00;0.00;;;;;7.75;70.42;101793.34;146620;624;46012;-71
2024/01/21 02:36:55;;;;;;;;;2.25;1.00;;;;;7.75;70.86;101789.09;146621;614;46010;-72
2024/01/21 02:39:54;;;;;;;;;10.75;8.00;;;;;7.77;70.66;101796.97;146616;615;47012;-73
2024/01/21 02:42:50;;;;;;;;;1.50;1.50;;;;;7.79;70.43;101785.09;146621;571;46014;-73
2024/01/21 02:46:06;;;;;;;;;;;;;;;;;;;;;
2024/01/21 02:49:07;;;;;;;;;1.00;1.00;;;;;7.84;69.89;101797.56;146622;569;46020;-73
2024/01/21 02:52:10;;;;;;;;;1.50;1.50;;;;;7.90;70.47;101807.50;146618;610;46037;-68
2024/01/21 02:55:10;;;;;;;;;1.00;1.00;;;;;7.94;70.27;101799.19;146619;611;46021;-69
2024/01/21 02:58:04;;;;;;;;;4.25;2.75;;;;;7.98;70.36;101810.69;146620;577;46012;-73
2024/01/21 03:00:56;;;;;;;;;2.00;2.00;;;;;8.01;70.63;101801.50;146623;575;46021;-71
2024/01/21 03:03:56;;;;;;;;;20.50;16.00;;;;;8.05;70.12;101807.81;146615;597;46016;-73
2024/01/21 03:07:03;;;;;;;;;3.00;2.00;;;;;8.05;69.96;101810.38;146623;584;46010;-72
2024/01/21 03:10:02;;;;;;;;;8.25;8.25;;;;;7.99;70.14;101807.31;146617;566;47016;-73
2024/01/21 03:13:16;;;;;;;;;2.00;1.50;;;;;7.93;69.94;101812.00;146615;581;47010;-71
2024/01/21 03:16:18;;;;;;;;;4.50;2.75;;;;;7.83;70.04;101824.19;146619;587;46016;-71
2024/01/21 03:19:14;;;;;;;;;5.50;5.00;;;;;7.77;71.29;101827.97;146619;563;46010;-71
2024/01/21 03:22:33;;;;;;;;;;;;;;;;;;;;;
2024/01/21 03:25:37;;;;;;;;;1.00;1.00;;;;;7.70;71.57;101843.75;146621;607;46014;-70
2024/01/21 03:28:30;;;;;;;;;3.00;2.00;;;;;7.73;72.20;101836.25;146616;618;46016;-69
2024/01/21 03:31:42;;;;;;;;;3.00;2.00;;;;;7.77;71.57;101833.13;146615;587;47020;-73
2024/01/21 03:34:51;;;;;;;;;;;;;;;;;;;;;
2024/01/21 03:38:05;;;;;;;;;2.50;2.00;;;;;7.60;71.53;101842.06;146622;619;46014;-72
2024/01/21 03:41:13;;;;;;;;;5.75;4.75;;;;;7.56;71.49;101856.41;146618;626;46012;-71
2024/01/21 03:44:14;;;;;;;;;18.00;15.00;;;;;7.59;73.80;101842.88;146618;566;46020;-72
2024/01/21 03:47:16;;;;;;;;;33.00;30.75;;;;;7.69;73.71;101852.25;146615;641;46035;-71
2024/01/21 03:50:22;;;;;;;;;15.50;12.50;;;;;7.75;74.00;101842.41;146618;670;46010;-71
2024/01/21 03:53:31;;;;;;;;;6.25;5.25;;;;;6.10;71.90;101549.72;146619;641;46012;-72
2024/01/21 03:56:45;;;;;;;;;2.00;2.00;;;;;7.85;72.24;101855.31;146622;551;46010;-72
2024/01/21 03:59:46;;;;;;;;;4.00;4.00;;;;;7.90;72.47;101853.97;146617;594;46017;-73
2024/01/21 04:02:38;;;;;;;;;9.75;6.75;;;;;7.98;72.70;101863.25;146623;597;46020;-75
2024/01/21 04:05:36;;;;;;;;;7.00;5.25;;;;;8.01;72.29;101857.44;146617;613;46016;-74
2024/01/21 04:08:38;;;;;;;;;5.00;4.00;;;;;7.97;72.29;101858.84;146623;590;46020;-73
2024/01/21 04:11:34;;;;;;;;;7.50;7.00;;;;;7.89;72.39;101862.50;146619;605;46016;-74
2024/01/21 04:14:31;;;;;;;;;7.00;7.00;;;;;7.83;73.19;101865.50;146621;654;47030;-73
2024/01/21 04:17:36;;;;;;;;;6.25;5.25;;;;;7.84;73.26;101864.72;146617;590;46012;-72
2024/01/21 04:20:33;;;;;;;;;5.50;4.00;;;;;7.85;73.44;101876.88;146623;606;46010;-74
2024/01/21 04:23:31;;;;;;;;;3.50;3.50;;;;;7.85;72.89;101876.88;146619;612;46012;-73
2024/01/21 04:26:48;;;;;;;;;5.75;4.00;;;;;7.83;72.86;101877.50;146620;646;46020;-74
2024/01/21 04:29:43;;;;;;;;;4.75;4.25;;;;;7.86;72.80;101875.19;146618;576;46017;-74
2024/01/21 04:32:41;;;;;;;;;3.75;3.50;;;;;7.89;72.78;101883.16;146622;569;46030;-72
2024/01/21 04:35:39;;;;;;;;;4.00;4.00;;;;;7.90;72.67;101886.66;146632;588;45916;-71
2024/01/21 04:38:36;;;;;;;;;3.50;3.00;;;;;7.96;72.61;101895.78;146635;597;45010;-72
2024/01/21 04:41:48;;;;;;;;;4.75;4.00;;;;;7.94;72.99;101897.34;146634;617;45016;-77
2024/01/21 04:44:40;;;;;;;;;3.00;2.75;;;;;7.90;73.00;101900.47;146626;627;46916;-74
2024/01/21 04:47:37;;;;;;;;;6.00;5.75;;;;;7.92;73.21;101898.00;146623;592;47016;-74
2024/01/21 04:50:37;;;;;;;;;5.50;3.50;;;;;7.94;73.12;101906.78;146635;585;45021;-74
2024/01/21 04:53:45;;;;;;;;;0.50;0.50;;;;;6.38;72.92;101627.59;146632;619;46012;-73
2024/01/21 04:56:40;;;;;;;;;3.75;2.25;;;;;7.97;73.62;101907.00;146635;571;45010;-72
2024/01/21 04:59:40;;;;;;;;;4.75;4.00;;;;;7.96;73.33;101906.12;146632;741;46013;-72
2024/01/21 05:02:39;;;;;;;;;47.75;36.50;;;;;7.93;73.54;101912.72;146631;700;45038;-72
2024/01/21 05:05:34;;;;;;;;;4.00;4.00;;;;;7.86;74.53;101914.81;146633;564;45016;-73
2024/01/21 05:08:29;;;;;;;;;5.00;4.75;;;;;7.72;73.79;101910.19;146634;603;45020;-76
2024/01/21 05:11:30;;;;;;;;;2.50;2.50;;;;;7.74;73.37;101926.72;146635;576;45014;-73
2024/01/21 05:14:27;;;;;;;;;3.75;3.00;;;;;7.66;73.60;101920.00;146636;618;45021;-73
2024/01/21 05:17:22;;;;;;;;;5.50;4.75;;;;;7.64;73.57;101931.91;146634;585;45014;-71
2024/01/21 05:20:24;;;;;;;;;7.50;7.00;;;;;7.69;74.03;101933.19;146636;617;45011;-70
2024/01/21 05:23:26;;;;;;;;;6.50;5.25;;;;;7.79;73.19;101934.84;146634;633;45016;-71
2024/01/21 05:26:27;;;;;;;;;7.50;6.25;;;;;7.84;73.35;101942.19;146633;582;45020;-71
2024/01/21 05:29:30;;;;;;;;;6.00;5.25;;;;;7.89;72.88;101939.09;146635;622;45016;-71
2024/01/21 05:32:31;;;;;;;;;6.25;5.25;;;;;7.98;73.02;101942.41;146636;563;45020;-70
2024/01/21 05:35:29;;;;;;;;;8.50;7.00;;;;;8.01;72.39;101938.41;146631;597;45034;-71
2024/01/21 05:38:27;;;;;;;;;86.00;72.50;;;;;8.03;72.61;101941.09;146634;818;45020;-72
2024/01/21 05:41:35;;;;;;;;;;;;;;;;;;;;;
2024/01/21 05:44:30;;;;;;;;;8.75;6.50;;;;;7.97;72.99;101945.75;146633;602;46010;-70
2024/01/21 05:47:43;;;;;;;;;;;;;;;;;;;;;
2024/01/21 05:50:47;;;;;;;;;12.00;12.00;;;;;7.97;73.37;101958.66;146632;569;45917;-70
2024/01/21 05:53:42;;;;;;;;;7.50;7.25;;;;;7.96;73.61;101968.09;146634;627;45012;-69
2024/01/21 05:56:37;;;;;;;;;5.25;5.25;;;;;7.94;73.48;101964.47;146633;644;46020;-69
2024/01/21 05:59:32;;;;;;;;;8.50;8.50;;;;;7.97;73.95;101963.84;146633;563;45014;-70
2024/01/21 06:02:26;;;;;;;;;9.00;7.75;;;;;7.28;73.96;101853.25;146627;570;46010;-70
2024/01/21 06:05:27;;;;;;;;;9.00;6.75;;;;;7.97;74.22;101982.81;146634;564;45013;-70
2024/01/21 06:08:23;;;;;;;;;17.50;17.00;;;;;7.95;73.90;101970.56;146634;574;45020;-73
2024/01/21 06:11:19;;;;;;;;;27.50;25.25;;;;;7.98;74.33;101973.41;146633;598;45013;-71
2024/01/21 06:14:18;;;;;;;;;20.75;20.75;;;;;8.03;74.75;101980.72;146636;628;45020;-73
2024/01/21 06:17:19;;;;;;;;;20.75;17.00;;;;;8.08;74.77;101983.72;146633;574;45016;-73
2024/01/21 06:20:21;;;;;;;;;14.75;13.25;;;;;8.11;74.43;101991.69;146635;564;45010;-73
2024/01/21 06:23:19;;;;;;;;;10.00;8.75;;;;;8.07;74.75;101992.25;146635;615;45016;-73
2024/01/21 06:26:28;;;;;;;;;8.50;7.25;;;;;7.99;74.03;101989.03;146634;587;45020;-69
2024/01/21 06:29:35;;;;;;;;;19.25;18.00;;;;;7.96;74.53;101991.34;146632;585;45016;-69
2024/01/21 06:32:37;;;;;;;;;19.50;18.00;;;;;7.93;74.38;101998.84;146634;624;46010;-69
2024/01/21 06:35:29;;;;;;;;;9.75;9.75;;;;;7.92;74.55;102007.38;146632;599;46016;-68
2024/01/21 06:38:21;;;;;;;;;6.75;6.75;;;;;7.92;74.89;102012.53;146638;596;45010;-70
2024/01/21 06:41:17;;;;;;;;;9.25;7.75;;;;;7.93;75.16;102010.88;146633;575;45013;-69
2024/01/21 06:44:16;;;;;;;;;10.25;10.00;;;;;8.02;74.98;102014.19;146632;600;45020;-69
2024/01/21 06:47:19;;;;;;;;;4.00;4.00;;;;;8.08;74.83;102013.03;146634;607;45914;-69
2024/01/21 06:50:35;;;;;;;;;3.50;3.25;;;;;8.13;74.52;102021.16;146636;617;45020;-69
2024/01/21 06:53:29;;;;;;;;;4.25;4.25;;;;;8.14;74.39;102025.53;146633;626;46918;-69
2024/01/21 06:56:25;;;;;;;;;4.50;4.50;;;;;8.14;73.86;102033.28;146637;587;45011;-70
2024/01/21 06:59:38;;;;;;;;;6.25;6.25;;;;;8.17;73.97;102028.38;146633;679;45035;-73
2024/01/21 07:02:35;;;;;;;;;14.00;12.25;;;;;8.26;73.85;102039.47;146635;587;46010;-73
2024/01/21 07:05:28;;;;;;;;;10.50;9.75;;;;;8.35;73.46;102049.66;146632;564;45014;-69
2024/01/21 07:08:25;;;;;;;;;21.50;20.50;;;;;8.44;71.96;102045.25;146634;565;45029;-69
2024/01/21 07:11:25;;;;;;;;;22.50;21.00;;;;;8.47;71.12;102052.34;146629;607;45914;-70
2024/01/21 07:14:33;;;;;;;;;22.00;19.25;;;;;8.51;71.67;102047.56;146635;583;45020;-70
2024/01/21 07:17:40;;;;;;;;;17.75;16.50;;;;;8.61;71.64;102061.22;146628;611;45916;-71
2024/01/21 07:20:41;;;;;;;;;21.00;19.25;;;;;8.70;72.02;102068.03;146633;608;45020;-70
2024/01/21 07:23:48;;;;;;;;;16.75;13.75;;;;;8.78;72.61;102061.78;146632;563;45028;-70
2024/01/21 07:26:52;;;;;;;;;23.25;19.75;;;;;8.90;72.79;102066.12;146631;603;45011;-70
2024/01/21 07:29:45;;;;;;;;;28.00;25.00;;;;;8.97;72.88;102063.22;146630;579;45016;-73
2024/01/21 07:32:51;;;;;;;;;40.25;35.25;;;;;9.04;71.99;102072.41;146634;610;45020;-71
2024/01/21 07:35:54;;;;;;;;;39.50;30.50;;;;;7.70;71.78;101823.09;146616;565;46012;-73
2024/01/21 07:38:50;;;;;;;;;30.50;27.00;;;;;9.10;71.61;102071.19;146620;570;46020;-72
2024/01/21 07:41:50;;;;;;;;;20.00;18.00;;;;;9.11;70.85;102079.84;146613;610;47013;-70
2024/01/21 07:44:49;;;;;;;;;23.00;20.25;;;;;9.12;69.75;102079.97;146620;576;46020;-72
2024/01/21 07:47:46;;;;;;;;;26.25;23.50;;;;;9.09;68.82;102087.47;146618;566;46012;-73
2024/01/21 07:50:48;;;;;;;;;34.25;29.00;;;;;9.08;68.54;102092.53;146618;615;47010;-72
2024/01/21 07:53:59;;;;;;;;;34.50;30.75;;;;;9.04;68.72;102091.41;146614;631;46016;-72
2024/01/21 07:56:55;;;;;;;;;35.25;31.25;;;;;8.99;68.18;102092.72;146620;573;46021;-72
2024/01/21 07:59:50;;;;;;;;;30.25;25.25;;;;;8.99;69.09;102103.06;146612;586;47014;-70
2024/01/21 08:02:57;;;;;;;;;41.25;34.75;;;;;9.01;70.01;102105.00;146618;595;46015;-70
2024/01/21 08:06:04;;;;;;;;;35.25;27.50;;;;;9.09;69.81;102105.59;146616;588;46012;-71
2024/01/21 08:08:59;;;;;;;;;25.00;24.00;;;;;9.15;69.57;102100.00;146622;598;46010;-71
2024/01/21 08:11:56;;;;;;;;;26.25;25.50;;;;;9.21;68.78;102101.37;146614;564;46017;-75
2024/01/21 08:14:50;;;;;;;;;36.25;31.00;;;;;9.24;68.94;102109.38;146613;642;47011;-76
2024/01/21 08:18:07;;;;;;;;;;;;;;;;;;;;;
2024/01/21 08:21:02;;;;;;;;;40.00;32.50;;;;;9.37;67.68;102102.59;146620;583;46020;-74
2024/01/21 08:23:59;;;;;;;;;34.25;31.25;;;;;9.42;67.65;102103.84;146616;577;46016;-75
2024/01/21 08:26:55;;;;;;;;;42.75;35.00;;;;;9.49;68.26;102104.44;146620;614;46010;-75
2024/01/21 08:29:59;;;;;;;;;61.00;47.25;;;;;9.56;67.50;102105.81;146619;690;45582;-75
2024/01/21 08:33:02;;;;;;;;;52.00;40.00;;;;;9.63;67.20;102112.41;146620;579;46021;-75
2024/01/21 08:36:04;;;;;;;;;20.25;18.00;;;;;9.65;67.32;102106.53;146616;621;46016;-75
2024/01/21 08:38:59;;;;;;;;;13.50;10.75;;;;;9.74;67.12;102108.91;146622;563;46010;-75
2024/01/21 08:41:51;;;;;;;;;19.75;16.75;;;;;9.79;66.04;102114.47;146616;626;46012;-75
2024/01/21 08:44:50;;;;;;;;;19.25;17.25;;;;;9.80;66.18;102111.97;146618;570;46010;-74
2024/01/21 08:47:48;;;;;;;;;22.50;20.75;;;;;9.85;66.21;102109.75;146614;578;46017;-73
2024/01/21 08:50:51;;;;;;;;;35.25;31.00;;;;;9.89;65.79;102106.59;146618;580;46010;-76
2024/01/21 08:53:55;;;;;;;;;27.50;26.50;;;;;9.92;65.89;102107.72;146616;604;46012;-76
2024/01/21 08:56:53;;;;;;;;;30.75;26.75;;;;;9.93;66.56;102109.53;146619;594;46020;-74
2024/01/21 08:59:51;;;;;;;;;29.00;26.25;;;;;9.97;66.90;102109.75;146611;574;46016;-74
2024/01/21 09:03:14;;;;;;;;;27.00;25.00;;;;;10.02;66.70;102114.50;146619;617;48011;-75
2024/01/21 09:06:16;;;;;;;;;31.50;27.25;;;;;10.05;67.36;102104.37;146612;579;47014;-74
2024/01/21 09:09:19;;;;;;;;;35.25;31.00;;;;;10.08;67.18;102112.38;146619;641;49010;-74
2024/01/21 09:12:14;;;;;;;;;28.50;24.50;;;;;10.12;67.39;102118.69;146615;579;46012;-73
2024/01/21 09:15:24;;;;;;;;;20.50;19.50;;;;;10.12;66.84;102119.62;146619;575;46010;-74
2024/01/21 09:18:19;;;;;;;;;20.75;18.50;;;;;10.12;66.61;102106.66;146617;660;46016;-74
2024/01/21 09:21:24;;;;;;;;;25.75;24.75;;;;;10.15;65.98;102109.44;146619;589;47010;-74
2024/01/21 09:24:25;;;;;;;;;21.00;18.00;;;;;10.16;65.01;102113.88;146615;569;46016;-74
2024/01/21 09:27:32;;;;;;;;;18.75;17.50;;;;;9.36;65.04;101977.44;146618;625;46020;-75
2024/01/21 09:30:38;;;;;;;;;34.25;30.00;;;;;8.63;63.32;101848.56;146615;603;46014;-74
2024/01/21 09:33:47;;;;;;;;;8.75;7.25;;;;;10.13;63.02;102117.94;146620;686;46030;-74
2024/01/21 09:36:40;;;;;;;;;5.00;5.00;;;;;10.17;62.66;102114.78;146618;612;46016;-75
2024/01/21 09:39:52;;;;;;;;;8.75;8.50;;;;;10.22;62.85;102108.25;146622;581;46015;-74
2024/01/21 09:42:58;;;;;;;;;;;;;;;;;;;;;
2024/01/21 09:46:04;;;;;;;;;29.75;25.50;;;;;10.39;64.81;102105.22;146617;565;46020;-75
2024/01/21 09:49:03;;;;;;;;;26.50;24.00;;;;;10.43;63.65;102103.75;146615;597;46016;-74
2024/01/21 09:52:24;;;;;;;;;8.75;8.25;;;;;10.34;62.93;102072.91;146618;593;47010;-74
2024/01/21 09:55:29;;;;;;;;;24.75;23.00;;;;;10.42;62.87;102095.88;146613;591;46039;-75
2024/01/21 09:58:23;;;;;;;;;17.00;15.50;;;;;10.41;63.50;102105.38;146617;569;46020;-75
2024/01/21 10:01:27;;;;;;;;;26.50;24.25;;;;;10.45;62.92;102099.59;146613;564;47012;-76
2024/01/21 10:04:40;;;;;;;;;24.50;21.25;;;;;10.51;63.68;102097.47;146616;607;46021;-75
2024/01/21 10:07:37;;;;;;;;;26.50;24.00;;;;;10.54;64.46;102089.91;146616;565;47015;-75
2024/01/21 10:10:40;;;;;;;;;13.25;13.00;;;;;10.63;64.60;102095.78;146615;584;46020;-75
2024/01/21 10:13:39;;;;;;;;;20.25;18.00;;;;;10.74;63.99;102099.13;146614;598;47012;-75
2024/01/21 10:16:51;;;;;;;;;29.50;24.00;;;;;10.82;63.63;102097.09;146613;576;47010;-75
2024/01/21 10:19:43;;;;;;;;;9.00;7.00;;;;;10.85;62.15;102099.91;146615;618;47012;-75
2024/01/21 10:22:50;;;;;;;;;19.25;19.00;;;;;10.81;61.57;102093.63;146621;606;46021;-75
2024/01/21 10:25:48;;;;;;;;;18.75;18.00;;;;;10.82;61.05;102097.09;146611;591;47012;-75
2024/01/21 10:28:46;;;;;;;;;12.75;11.75;;;;;10.80;60.48;102096.97;146613;604;47010;-74
2024/01/21 10:31:44;;;;;;;;;7.00;6.00;;;;;10.80;60.33;102090.87;146615;640;46017;-74
2024/01/21 10:34:37;;;;;;;;;15.25;14.00;;;;;10.81;60.48;102095.28;146617;588;47010;-74
2024/01/21 10:37:33;;;;;;;;;24.25;22.75;;;;;10.85;60.97;102090.44;146615;570;46023;-75
2024/01/21 10:40:31;;;;;;;;;13.50;11.00;;;;;10.89;59.75;102093.25;146619;605;47010;-75
2024/01/21 10:43:27;;;;;;;;;11.75;10.25;;;;;10.90;58.50;102093.34;146613;563;48012;-74
2024/01/21 10:46:37;;;;;;;;;9.75;9.25;;;;;10.89;59.32;102085.47;146619;595;46020;-74
2024/01/21 10:50:05;;;;;;;;;46.00;38.50;;;;;10.93;60.67;102084.88;146619;621;46012;-74
2024/01/21 10:52:58;;;;;;;;;33.25;29.50;;;;;11.01;60.48;102105.41;146618;616;47012;-75
2024/01/21 10:55:54;;;;;;;;;38.75;30.00;;;;;11.12;60.86;102100.06;146612;629;46016;-75
2024/01/21 10:58:49;;;;;;;;;48.50;38.25;;;;;11.33;61.56;102107.66;146619;612;46010;-75
2024/01/21 11:02:05;;;;;;;;;14.75;14.75;;;;;10.06;59.66;101847.06;146616;625;47012;-74
2024/01/21 11:05:18;;;;;;;;;28.25;25.00;;;;;10.06;60.74;101830.56;146619;584;46020;-76
2024/01/21 11:08:32;;;;;;;;;14.75;12.25;;;;;11.54;58.65;102095.28;146615;656;46033;-74
2024/01/21 11:11:34;;;;;;;;;28.50;24.75;;;;;11.46;58.43;102087.75;146617;663;46014;-76
2024/01/21 11:14:42;;;;;;;;;13.25;13.00;;;;;11.37;58.23;102090.63;146613;610;47015;-76
2024/01/21 11:17:43;;;;;;;;;32.25;29.50;;;;;11.29;59.04;102084.88;146621;579;46010;-74
2024/01/21 11:20:45;;;;;;;;;33.25;31.75;;;;;11.32;58.48;102081.63;146613;585;48019;-77
2024/01/21 11:24:13;;;;;;;;;38.25;31.75;;;;;11.29;59.07;102069.31;146623;641;46014;-75
2024/01/21 11:27:19;;;;;;;;;29.50;26.75;;;;;11.32;58.79;102085.09;146617;596;46028;-74
2024/01/21 11:30:23;;;;;;;;;13.75;12.75;;;;;11.40;57.88;102076.94;146619;649;46021;-74
2024/01/21 11:33:36;;;;;;;;;12.25;10.75;;;;;9.94;57.74;101810.81;146614;633;46012;-74
2024/01/21 11:36:43;;;;;;;;;8.25;7.75;;;;;11.35;53.63;102081.81;146619;641;47020;-75
2024/01/21 11:39:39;;;;;;;;;8.75;8.75;;;;;11.26;54.67;102081.19;146618;603;46012;-77
2024/01/21 11:42:34;;;;;;;;;28.75;22.50;;;;;11.26;56.14;102082.06;146618;591;48010;-74
2024/01/21 11:45:26;;;;;;;;;12.75;12.75;;;;;11.29;54.83;102079.69;146616;622;46013;-71
2024/01/21 11:48:35;;;;;;;;;14.25;13.25;;;;;11.27;54.94;102081.28;146621;581;46020;-77
2024/01/21 11:51:38;;;;;;;;;22.75;21.75;;;;;9.68;56.06;101855.53;146616;581;47012;-77
2024/01/21 11:54:51;;;;;;;;;5.75;5.75;;;;;10.26;57.33;101956.44;146620;565;46020;-77
2024/01/21 11:57:47;;;;;;;;;7.00;6.75;;;;;11.13;55.01;102088.91;146614;569;46016;-78
2024/01/21 12:00:52;;;;;;;;;10.50;10.50;;;;;11.16;58.10;102081.34;146623;581;46020;-75
2024/01/21 12:03:53;;;;;;;;;10.25;7.50;;;;;11.24;57.69;102091.44;146616;564;47012;-77
2024/01/21 12:06:55;;;;;;;;;5.25;5.25;;;;;11.37;56.84;102097.50;146624;574;46011;-77
2024/01/21 12:09:53;;;;;;;;;4.25;4.00;;;;;11.42;57.02;102096.12;146617;680;46032;-75
2024/01/21 12:12:54;;;;;;;;;15.75;15.25;;;;;11.45;58.12;102096.34;146620;607;46014;-75
2024/01/21 12:16:00;;;;;;;;;7.00;7.00;;;;;11.43;55.31;102104.06;146617;581;46016;-75
2024/01/21 12:19:01;;;;;;;;;14.25;13.00;;;;;11.36;56.57;102094.00;146620;609;47010;-76
2024/01/21 12:21:59;;;;;;;;;7.25;6.25;;;;;11.33;57.58;102094.69;146613;615;47014;-74
2024/01/21 12:25:05;;;;;;;;;10.50;8.25;;;;;11.30;57.21;102102.25;146622;624;47028;-76
2024/01/21 12:28:02;;;;;;;;;18.75;17.00;;;;;11.30;57.53;102090.97;146614;600;47016;-76
2024/01/21 12:31:00;;;;;;;;;23.00;20.25;;;;;11.24;56.70;102078.47;146622;598;46020;-75
2024/01/21 12:34:07;;;;;;;;;4.00;4.00;;;;;11.16;57.09;102087.44;146617;605;46016;-75
2024/01/21 12:37:09;;;;;;;;;7.25;6.50;;;;;11.10;55.96;102074.91;146622;571;46021;-74
2024/01/21 12:40:01;;;;;;;;;7.50;7.50;;;;;11.07;56.04;102089.38;146621;563;46012;-75
2024/01/21 12:42:55;;;;;;;;;7.50;7.50;;;;;11.06;54.67;102088.47;146621;582;46020;-76
2024/01/21 12:45:54;;;;;;;;;6.50;6.00;;;;;11.04;55.20;102090.06;146617;592;46017;-76
2024/01/21 12:49:00;;;;;;;;;14.25;13.75;;;;;11.01;56.21;102095.03;146620;571;46010;-76
2024/01/21 12:51:55;;;;;;;;;4.00;4.00;;;;;10.95;54.76;102112.75;146616;619;46017;-76
2024/01/21 12:54:54;;;;;;;;;19.75;15.75;;;;;10.18;55.77;101980.09;146619;611;46020;-75
2024/01/21 12:58:09;;;;;;;;;12.75;11.75;;;;;10.78;55.83;102100.28;146617;570;46015;-75
2024/01/21 13:01:03;;;;;;;;;18.75;17.50;;;;;10.69;56.30;102100.50;146620;592;45030;-75
2024/01/21 13:04:08;;;;;;;;;34.50;27.50;;;;;10.70;56.23;102101.41;146613;589;47014;-75
2024/01/21 13:07:05;;;;;;;;;20.75;17.00;;;;;10.65;56.38;102106.25;146617;594;47010;-76
2024/01/21 13:10:07;;;;;;;;;37.25;32.75;;;;;10.61;56.55;102097.34;146613;602;46016;-75
2024/01/21 13:13:08;;;;;;;;;17.00;12.25;;;;;10.60;56.60;102111.09;146615;611;46015;-76
2024/01/21 13:16:05;;;;;;;;;37.25;32.75;;;;;10.62;57.50;102113.78;146615;740;46016;-75
2024/01/21 13:18:57;;;;;;;;;36.75;32.50;;;;;10.65;56.19;102114.03;146620;683;46020;-75
2024/01/21 13:21:55;;;;;;;;;23.75;20.50;;;;;10.65;55.04;102119.22;146617;608;47013;-73
2024/01/21 13:24:58;;;;;;;;;20.75;17.50;;;;;10.63;55.29;102118.22;146620;571;46010;-76
2024/01/21 13:28:14;;;;;;;;;20.25;19.00;;;;;10.59;54.82;102114.50;146613;583;48014;-74
2024/01/21 13:31:11;;;;;;;;;19.50;16.75;;;;;10.60;54.71;102124.06;146617;576;46020;-77
2024/01/21 13:34:26;;;;;;;;;22.50;21.75;;;;;10.61;55.97;102136.25;146619;661;46012;-77
2024/01/21 13:37:23;;;;;;;;;40.00;33.00;;;;;10.63;55.06;102128.59;146619;739;46010;-78
2024/01/21 13:40:22;;;;;;;;;11.50;10.00;;;;;10.60;55.80;102144.81;146613;582;46016;-77
2024/01/21 13:43:18;;;;;;;;;7.25;5.75;;;;;10.47;53.65;102164.56;146619;567;46021;-77
2024/01/21 13:46:20;;;;;;;;;16.25;14.50;;;;;10.36;53.18;102168.94;146614;591;46914;-76
2024/01/21 13:49:17;;;;;;;;;3.50;3.00;;;;;10.21;52.12;102162.56;146622;603;46010;-75
2024/01/21 13:52:19;;;;;;;;;4.00;2.25;;;;;9.99;51.66;102170.38;146616;582;46016;-73
2024/01/21 13:55:15;;;;;;;;;12.75;11.50;;;;;9.78;55.31;102167.03;146635;608;46020;-77
2024/01/21 13:58:16;;;;;;;;;9.25;8.25;;;;;9.59;52.90;102165.59;146611;676;47013;-74
2024/01/21 14:01:16;;;;;;;;;12.00;11.50;;;;;9.47;52.84;102159.50;146617;577;47010;-75
2024/01/21 14:04:24;;;;;;;;;5.00;5.00;;;;;7.90;53.24;101913.38;146615;589;46016;-74
2024/01/21 14:07:19;;;;;;;;;18.00;12.50;;;;;9.30;54.68;102175.38;146620;599;46010;-77
2024/01/21 14:10:22;;;;;;;;;8.50;7.00;;;;;9.29;53.94;102165.81;146615;563;47014;-78
2024/01/21 14:13:17;;;;;;;;;7.00;7.00;;;;;9.33;53.63;102167.84;146621;580;46010;-77